Time;durP1;ratioP1;P1;durP2;ratioP2;P2;SDS_P1;SDS_P2;PMS_P1;PMS_P2;Temp;Humidity;BMP_temperature;BMP_pressure;BME280_temperature;BME280_humidity;BME280_pressure;Samples;Min_cycle;Max_cycle;Signal;HPM_P1;HPM_P2
2021/01/29 00:01:37;;;;;;;35.83;20.87;;;;;;;;;;667066;211;922198;-74
2021/01/29 00:04:03;;;;;;;39.30;22.20;;;;;;;;;;660517;211;1018494;-75
2021/01/29 00:06:28;;;;;;;38.58;21.58;;;;;;;;;;660149;211;919393;-74
2021/01/29 00:08:56;;;;;;;38.53;21.00;;;;;;;;;;664803;208;918897;-73
2021/01/29 00:11:21;;;;;;;39.17;22.13;;;;;;;;;;663339;210;918701;-75
2021/01/29 00:13:47;;;;;;;34.87;20.97;;;;;;;;;;662806;211;919146;-75
2021/01/29 00:16:13;;;;;;;39.30;22.50;;;;;;;;;;661396;208;919089;-75
2021/01/29 00:18:39;;;;;;;38.40;23.77;;;;;;;;;;667041;211;919114;-75
2021/01/29 00:21:05;;;;;;;40.37;24.33;;;;;;;;;;659365;211;919184;-75
2021/01/29 00:23:31;;;;;;;43.33;23.85;;;;;;;;;;662660;209;1021666;-73
2021/01/29 00:25:57;;;;;;;47.30;26.27;;;;;;;;;;667792;210;917833;-74
2021/01/29 00:28:22;;;;;;;36.60;24.00;;;;;;;;;;663701;210;919439;-74
2021/01/29 00:30:50;;;;;;;41.55;24.95;;;;;;;;;;660975;207;1114987;-75
2021/01/29 00:33:14;;;;;;;44.23;24.63;;;;;;;;;;668570;210;919261;-74
2021/01/29 00:35:40;;;;;;;54.13;27.10;;;;;;;;;;663135;207;919128;-75
2021/01/29 00:38:06;;;;;;;44.60;26.20;;;;;;;;;;664143;210;919246;-75
2021/01/29 00:40:32;;;;;;;39.73;22.27;;;;;;;;;;666193;209;918461;-75
2021/01/29 00:42:57;;;;;;;31.40;21.30;;;;;;;;;;661979;211;917846;-75
2021/01/29 00:45:23;;;;;;;34.00;23.27;;;;;;;;;;661590;210;919298;-75
2021/01/29 00:47:49;;;;;;;40.00;23.70;;;;;;;;;;663132;211;918829;-73
2021/01/29 00:50:15;;;;;;;40.23;23.40;;;;;;;;;;666203;211;918727;-75
2021/01/29 00:52:41;;;;;;;44.27;24.20;;;;;;;;;;661529;207;918593;-75
2021/01/29 00:55:07;;;;;;;38.37;21.80;;;;;;;;;;663227;211;918897;-74
2021/01/29 00:57:33;;;;;;;42.17;21.00;;;;;;;;;;666108;207;1123005;-74
2021/01/29 00:59:59;;;;;;;36.70;21.97;;;;;;;;;;663116;211;918524;-75
2021/01/29 01:02:25;;;;;;;42.37;24.10;;;;;;;;;;661735;208;918799;-74
2021/01/29 01:04:51;;;;;;;42.73;24.43;;;;;;;;;;665402;211;918751;-75
2021/01/29 01:07:17;;;;;;;39.40;23.70;;;;;;;;;;659683;208;918289;-75
2021/01/29 01:09:43;;;;;;;38.50;24.08;;;;;;;;;;662500;210;919240;-75
2021/01/29 01:12:09;;;;;;;34.67;21.10;;;;;;;;;;657812;211;989187;-74
2021/01/29 01:14:34;;;;;;;38.53;23.33;;;;;;;;;;665762;211;918751;-74
2021/01/29 01:17:00;;;;;;;37.72;22.60;;;;;;;;;;659824;211;919278;-74
2021/01/29 01:19:26;;;;;;;35.37;19.77;;;;;;;;;;660196;211;919012;-73
2021/01/29 01:21:52;;;;;;;34.80;19.70;;;;;;;;;;665031;211;918875;-75
2021/01/29 01:24:18;;;;;;;42.95;22.70;;;;;;;;;;663543;211;919693;-74
2021/01/29 01:26:44;;;;;;;33.87;22.40;;;;;;;;;;662373;211;927585;-75
2021/01/29 01:29:09;;;;;;;42.23;21.10;;;;;;;;;;664953;211;918205;-75
2021/01/29 01:31:35;;;;;;;35.80;20.57;;;;;;;;;;662304;211;919069;-75
2021/01/29 01:34:01;;;;;;;38.10;21.67;;;;;;;;;;662522;209;918452;-74
2021/01/29 01:36:27;;;;;;;36.93;23.37;;;;;;;;;;669369;210;919280;-75
2021/01/29 01:38:53;;;;;;;36.73;21.93;;;;;;;;;;661950;207;906211;-75
2021/01/29 01:41:19;;;;;;;30.83;21.17;;;;;;;;;;661818;210;918679;-75
2021/01/29 01:43:44;;;;;;;42.23;23.67;;;;;;;;;;660249;207;919804;-75
2021/01/29 01:46:11;;;;;;;41.13;22.17;;;;;;;;;;669462;210;916973;-74
2021/01/29 01:48:52;;;;;;;39.57;22.37;;;;;;;;;;664662;207;916340;-73
2021/01/29 01:51:20;;;;;;;36.37;21.20;;;;;;;;;;663992;210;915411;-76
2021/01/29 01:53:46;;;;;;;43.00;24.27;;;;;;;;;;661451;210;915347;-76
2021/01/29 01:56:18;;;;;;;42.10;25.77;;;;;;;;;;666785;211;919623;-76
2021/01/29 01:58:44;;;;;;;39.97;25.50;;;;;;;;;;661390;207;919489;-76
2021/01/29 02:01:09;;;;;;;41.80;24.53;;;;;;;;;;661554;211;917719;-76
2021/01/29 02:03:35;;;;;;;42.47;24.12;;;;;;;;;;660691;207;918634;-76
2021/01/29 02:06:01;;;;;;;42.43;24.00;;;;;;;;;;667473;211;1021998;-75
2021/01/29 02:08:28;;;;;;;45.58;25.02;;;;;;;;;;662585;207;918714;-75
2021/01/29 02:10:54;;;;;;;46.37;25.57;;;;;;;;;;661200;209;1021458;-76
2021/01/29 02:13:20;;;;;;;54.20;26.50;;;;;;;;;;667940;210;918147;-76
2021/01/29 02:15:45;;;;;;;40.23;24.47;;;;;;;;;;661424;209;919127;-76
2021/01/29 02:18:20;;;;;;;42.20;25.97;;;;;;;;;;663683;210;919827;-75
2021/01/29 02:20:47;;;;;;;50.55;25.75;;;;;;;;;;661108;210;918512;-76
2021/01/29 02:23:16;;;;;;;44.73;25.93;;;;;;;;;;668744;211;816293;-75
2021/01/29 02:25:53;;;;;;;43.63;28.30;;;;;;;;;;661616;211;919380;-75
2021/01/29 02:28:35;;;;;;;45.47;26.40;;;;;;;;;;663691;211;919080;-75
2021/01/29 02:31:01;;;;;;;48.40;27.10;;;;;;;;;;658456;211;919537;-75
2021/01/29 02:33:31;;;;;;;46.60;25.70;;;;;;;;;;662093;211;924744;-75
2021/01/29 02:36:03;;;;;;;49.40;27.67;;;;;;;;;;664339;209;919197;-75
2021/01/29 02:38:35;;;;;;;45.40;23.77;;;;;;;;;;668059;210;918798;-75
2021/01/29 02:41:07;;;;;;;58.93;29.03;;;;;;;;;;659630;210;919005;-75
2021/01/29 02:43:32;;;;;;;49.90;28.47;;;;;;;;;;662323;211;1018759;-75
2021/01/29 02:46:04;;;;;;;46.20;29.30;;;;;;;;;;659433;211;1012626;-75
2021/01/29 02:48:45;;;;;;;50.90;28.80;;;;;;;;;;668786;210;919170;-75
2021/01/29 02:51:13;;;;;;;59.78;26.95;;;;;;;;;;668283;210;990473;-75
2021/01/29 02:53:40;;;;;;;52.13;27.47;;;;;;;;;;664657;210;918977;-75
2021/01/29 02:56:21;;;;;;;57.40;31.77;;;;;;;;;;661780;210;918723;-75
2021/01/29 02:58:49;;;;;;;60.23;28.60;;;;;;;;;;665222;208;919375;-75
2021/01/29 03:01:15;;;;;;;69.43;33.07;;;;;;;;;;657489;210;1737462;-74
2021/01/29 03:03:42;;;;;;;50.63;27.80;;;;;;;;;;669177;210;919471;-75
2021/01/29 03:06:09;;;;;;;61.83;28.10;;;;;;;;;;651334;207;2930781;-75
2021/01/29 03:08:35;;;;;;;57.27;28.60;;;;;;;;;;662924;211;918980;-75
2021/01/29 03:11:03;;;;;;;52.93;29.90;;;;;;;;;;665584;207;918989;-75
2021/01/29 03:13:29;;;;;;;68.63;30.97;;;;;;;;;;661786;211;940872;-75
2021/01/29 03:15:55;;;;;;;56.60;28.27;;;;;;;;;;662398;211;919203;-76
2021/01/29 03:18:22;;;;;;;63.33;30.40;;;;;;;;;;666640;207;918489;-74
2021/01/29 03:20:50;;;;;;;59.73;28.03;;;;;;;;;;664174;211;922023;-75
2021/01/29 03:23:19;;;;;;;70.37;31.40;;;;;;;;;;661690;211;917747;-75
2021/01/29 03:25:45;;;;;;;64.63;30.43;;;;;;;;;;661768;211;1022860;-75
2021/01/29 03:28:11;;;;;;;70.73;32.53;;;;;;;;;;664382;211;1013967;-76
2021/01/29 03:30:36;;;;;;;67.43;32.37;;;;;;;;;;661151;211;1021138;-75
2021/01/29 03:33:02;;;;;;;69.80;29.63;;;;;;;;;;662316;211;1016652;-75
2021/01/29 03:35:28;;;;;;;63.40;30.90;;;;;;;;;;667502;211;916873;-75
2021/01/29 03:37:55;;;;;;;62.30;29.50;;;;;;;;;;661135;208;917251;-75
2021/01/29 03:40:21;;;;;;;70.43;28.60;;;;;;;;;;666102;211;918990;-75
2021/01/29 03:42:52;;;;;;;78.33;31.27;;;;;;;;;;661505;208;918731;-75
2021/01/29 03:45:18;;;;;;;68.07;30.90;;;;;;;;;;667146;211;1020865;-75
2021/01/29 03:47:48;;;;;;;62.83;31.00;;;;;;;;;;655804;211;2162101;-75
2021/01/29 03:50:14;;;;;;;63.03;29.23;;;;;;;;;;663456;211;919164;-75
2021/01/29 03:52:40;;;;;;;69.57;30.87;;;;;;;;;;655401;207;918871;-75
2021/01/29 03:55:09;;;;;;;89.07;34.80;;;;;;;;;;667278;210;919367;-75
2021/01/29 03:57:50;;;;;;;84.30;32.90;;;;;;;;;;663327;209;919680;-73
2021/01/29 04:00:19;;;;;;;69.43;31.63;;;;;;;;;;665224;209;918416;-75
2021/01/29 04:02:47;;;;;;;84.30;34.17;;;;;;;;;;663943;210;1020256;-75
2021/01/29 04:05:13;;;;;;;76.13;32.90;;;;;;;;;;664903;210;1021184;-76
2021/01/29 04:07:39;;;;;;;76.83;31.10;;;;;;;;;;663577;210;920470;-75
2021/01/29 04:10:06;;;;;;;63.42;31.87;;;;;;;;;;660931;210;919620;-75
2021/01/29 04:12:43;;;;;;;89.20;32.30;;;;;;;;;;662647;210;1017211;-74
2021/01/29 04:15:10;;;;;;;74.70;31.80;;;;;;;;;;665812;209;964172;-75
2021/01/29 04:17:36;;;;;;;90.73;31.73;;;;;;;;;;661698;211;930649;-75
2021/01/29 04:20:02;;;;;;;71.50;32.70;;;;;;;;;;659139;207;920727;-75
2021/01/29 04:22:30;;;;;;;92.07;33.97;;;;;;;;;;661347;211;918850;-75
2021/01/29 04:24:56;;;;;;;87.17;33.47;;;;;;;;;;666889;209;1021391;-76
2021/01/29 04:27:22;;;;;;;88.87;33.90;;;;;;;;;;664693;211;919420;-75
2021/01/29 04:29:47;;;;;;;89.07;34.80;;;;;;;;;;661424;211;918836;-76
2021/01/29 04:32:13;;;;;;;100.37;34.77;;;;;;;;;;664967;211;920223;-76
2021/01/29 04:34:39;;;;;;;83.50;31.80;;;;;;;;;;660702;207;918007;-76
2021/01/29 04:37:05;;;;;;;89.10;33.73;;;;;;;;;;664917;211;876067;-76
2021/01/29 04:39:32;;;;;;;100.73;34.73;;;;;;;;;;664388;207;1021279;-75
2021/01/29 04:42:04;;;;;;;83.77;32.43;;;;;;;;;;670311;211;887699;-76
2021/01/29 04:44:31;;;;;;;81.97;34.30;;;;;;;;;;659849;208;1056335;-75
2021/01/29 04:47:17;;;;;;;93.83;36.33;;;;;;;;;;661307;211;1021703;-75
2021/01/29 04:49:49;;;;;;;93.20;35.20;;;;;;;;;;658840;211;1021364;-74
2021/01/29 04:52:21;;;;;;;94.60;33.87;;;;;;;;;;662107;210;919446;-76
2021/01/29 04:55:02;;;;;;;96.77;34.23;;;;;;;;;;668232;211;919046;-75
2021/01/29 04:57:34;;;;;;;119.70;36.53;;;;;;;;;;658197;211;918554;-75
2021/01/29 05:00:16;;;;;;;110.97;35.30;;;;;;;;;;661858;211;1023450;-75
2021/01/29 05:02:47;;;;;;;111.33;36.13;;;;;;;;;;646145;211;918275;-75
2021/01/29 05:05:18;;;;;;;123.60;36.50;;;;;;;;;;661679;211;918768;-75
2021/01/29 05:07:50;;;;;;;130.27;36.27;;;;;;;;;;662923;211;817422;-76
2021/01/29 05:10:16;;;;;;;154.77;35.47;;;;;;;;;;664335;210;919054;-76
2021/01/29 05:12:59;;;;;;;139.50;34.70;;;;;;;;;;669011;207;624816;-75
2021/01/29 05:15:27;;;;;;;147.37;37.97;;;;;;;;;;665254;211;919429;-76
2021/01/29 05:17:54;;;;;;;209.97;40.23;;;;;;;;;;660663;210;944184;-76
2021/01/29 05:20:36;;;;;;;144.13;40.53;;;;;;;;;;662919;210;918582;-76
2021/01/29 05:23:12;;;;;;;189.93;40.47;;;;;;;;;;660721;207;915851;-76
2021/01/29 05:25:39;;;;;;;189.40;49.13;;;;;;;;;;664242;210;915133;-74
2021/01/29 05:28:21;;;;;;;211.23;46.50;;;;;;;;;;666613;207;918058;-75
2021/01/29 05:30:48;;;;;;;140.67;36.30;;;;;;;;;;669044;210;920105;-75
2021/01/29 05:33:29;;;;;;;126.77;37.17;;;;;;;;;;663082;210;917015;-75
2021/01/29 05:35:58;;;;;;;176.20;39.10;;;;;;;;;;662192;210;919092;-76
2021/01/29 05:38:29;;;;;;;263.03;45.97;;;;;;;;;;660618;210;919913;-76
2021/01/29 05:41:11;;;;;;;215.43;38.43;;;;;;;;;;663494;210;917718;-75
2021/01/29 05:43:38;;;;;;;227.93;42.87;;;;;;;;;;651291;207;2716051;-74
2021/01/29 05:46:07;;;;;;;184.98;37.58;;;;;;;;;;663813;211;919277;-76
2021/01/29 05:48:36;;;;;;;164.03;39.40;;;;;;;;;;660254;208;918648;-75
2021/01/29 05:51:17;;;;;;;123.73;31.53;;;;;;;;;;662221;211;1021587;-76
2021/01/29 05:54:01;;;;;;;150.20;33.85;;;;;;;;;;661319;207;918630;-75
2021/01/29 05:56:46;;;;;;;96.50;30.80;;;;;;;;;;661909;208;918686;-76
2021/01/29 05:59:28;;;;;;;121.40;32.30;;;;;;;;;;657648;208;2094939;-76
2021/01/29 06:01:55;;;;;;;96.37;31.80;;;;;;;;;;662442;210;919142;-76
2021/01/29 06:04:36;;;;;;;83.47;32.10;;;;;;;;;;661214;208;918657;-76
2021/01/29 06:07:11;;;;;;;108.10;37.30;;;;;;;;;;664468;209;917538;-75
2021/01/29 06:09:37;;;;;;;114.63;38.47;;;;;;;;;;666366;208;914671;-76
2021/01/29 06:12:03;;;;;;;148.07;54.43;;;;;;;;;;664363;211;918829;-76
2021/01/29 06:14:36;;;;;;;85.83;34.97;;;;;;;;;;662943;207;915219;-76
2021/01/29 06:17:15;;;;;;;100.27;39.77;;;;;;;;;;659589;211;919281;-76
2021/01/29 06:19:44;;;;;;;93.47;38.37;;;;;;;;;;653970;208;919685;-73
2021/01/29 06:22:19;;;;;;;106.77;48.17;;;;;;;;;;666678;210;919092;-76
2021/01/29 06:24:50;;;;;;;106.78;41.58;;;;;;;;;;655842;210;2641321;-74
2021/01/29 06:27:22;;;;;;;71.30;34.60;;;;;;;;;;660616;210;1019995;-75
2021/01/29 06:29:47;;;;;;;82.70;37.47;;;;;;;;;;661226;207;918102;-74
2021/01/29 06:32:14;;;;;;;53.47;26.70;;;;;;;;;;668127;210;919118;-74
2021/01/29 06:34:49;;;;;;;70.17;31.57;;;;;;;;;;661250;207;946250;-74
2021/01/29 06:37:31;;;;;;;62.40;32.43;;;;;;;;;;664396;210;919049;-74
2021/01/29 06:40:08;;;;;;;61.60;27.47;;;;;;;;;;658365;207;1021447;-75
2021/01/29 06:42:41;;;;;;;61.53;31.05;;;;;;;;;;664500;211;918477;-74
2021/01/29 06:45:26;;;;;;;60.87;29.40;;;;;;;;;;662719;211;912514;-75
2021/01/29 06:47:55;;;;;;;58.87;28.27;;;;;;;;;;662130;208;919012;-75
2021/01/29 06:50:38;;;;;;;65.07;33.90;;;;;;;;;;661969;211;816174;-75
2021/01/29 06:53:03;;;;;;;53.50;29.77;;;;;;;;;;663770;208;918363;-73
2021/01/29 06:55:35;;;;;;;73.33;36.83;;;;;;;;;;665829;207;918370;-75
2021/01/29 06:58:07;;;;;;;89.43;41.10;;;;;;;;;;661992;211;919421;-76
2021/01/29 07:00:38;;;;;;;61.10;29.90;;;;;;;;;;661459;207;950213;-76
2021/01/29 07:03:04;;;;;;;75.35;33.63;;;;;;;;;;662659;211;922281;-75
2021/01/29 07:05:30;;;;;;;84.50;38.30;;;;;;;;;;663437;211;993403;-75
2021/01/29 07:07:59;;;;;;;61.60;29.20;;;;;;;;;;663490;211;919082;-75
2021/01/29 07:10:41;;;;;;;55.03;27.93;;;;;;;;;;654513;210;2277343;-76
2021/01/29 07:13:10;;;;;;;66.63;33.40;;;;;;;;;;664968;210;940963;-75
2021/01/29 07:15:40;;;;;;;62.57;33.00;;;;;;;;;;660607;211;915818;-74
2021/01/29 07:18:06;;;;;;;62.53;30.43;;;;;;;;;;665558;211;915030;-74
2021/01/29 07:20:38;;;;;;;57.10;32.50;;;;;;;;;;657787;208;915378;-74
2021/01/29 07:23:06;;;;;;;67.00;29.67;;;;;;;;;;662189;211;1021492;-75
2021/01/29 07:25:48;;;;;;;62.37;32.93;;;;;;;;;;662264;211;919209;-74
2021/01/29 07:28:18;;;;;;;62.80;30.23;;;;;;;;;;663958;210;919004;-75
2021/01/29 07:31:02;;;;;;;42.27;24.43;;;;;;;;;;666224;211;918947;-76
2021/01/29 07:33:29;;;;;;;59.10;24.57;;;;;;;;;;671090;208;1019754;-75
2021/01/29 07:35:56;;;;;;;47.30;25.00;;;;;;;;;;664258;210;918034;-77
2021/01/29 07:38:23;;;;;;;82.60;36.40;;;;;;;;;;662714;207;919001;-75
2021/01/29 07:40:54;;;;;;;110.53;46.65;;;;;;;;;;666613;210;919386;-75
2021/01/29 07:43:26;;;;;;;63.27;31.80;;;;;;;;;;667382;210;918912;-75
2021/01/29 07:45:53;;;;;;;52.80;26.00;;;;;;;;;;664241;210;919205;-77
2021/01/29 07:48:36;;;;;;;60.75;29.45;;;;;;;;;;660459;210;919201;-76
2021/01/29 07:51:03;;;;;;;50.87;26.97;;;;;;;;;;663566;210;919336;-75
2021/01/29 07:53:29;;;;;;;49.13;27.43;;;;;;;;;;661183;210;918767;-75
2021/01/29 07:56:00;;;;;;;44.60;25.40;;;;;;;;;;665782;211;917696;-75
2021/01/29 07:58:29;;;;;;;75.97;39.97;;;;;;;;;;664121;210;647360;-76
2021/01/29 08:01:09;;;;;;;92.47;42.07;;;;;;;;;;665922;210;636417;-75
2021/01/29 08:03:50;;;;;;;99.17;47.10;;;;;;;;;;664282;210;618682;-75
2021/01/29 08:06:17;;;;;;;77.20;37.07;;;;;;;;;;663599;209;924483;-75
2021/01/29 08:08:44;;;;;;;59.80;30.23;;;;;;;;;;664569;211;919738;-75
2021/01/29 08:11:10;;;;;;;54.03;25.97;;;;;;;;;;663667;210;919285;-76
2021/01/29 08:13:59;;;;;;;60.47;27.93;;;;;;;;;;660914;211;1023413;-75
2021/01/29 08:16:21;;;;;;;65.37;32.23;;;;;;;;;;662833;211;921189;-76
2021/01/29 08:18:48;;;;;;;65.28;31.10;;;;;;;;;;657782;207;1156208;-76
2021/01/29 08:21:17;;;;;;;70.70;31.87;;;;;;;;;;665956;211;919816;-76
2021/01/29 08:24:00;;;;;;;73.80;35.33;;;;;;;;;;658403;207;918666;-75
2021/01/29 08:26:29;;;;;;;79.43;37.77;;;;;;;;;;659768;211;918813;-76
2021/01/29 08:28:58;;;;;;;68.77;31.20;;;;;;;;;;661119;207;919490;-76
2021/01/29 08:31:30;;;;;;;66.20;30.50;;;;;;;;;;661839;211;1022583;-76
2021/01/29 08:33:57;;;;;;;70.70;29.10;;;;;;;;;;665464;211;920280;-76
2021/01/29 08:36:40;;;;;;;67.67;31.00;;;;;;;;;;662709;211;888133;-76
2021/01/29 08:39:09;;;;;;;67.30;28.13;;;;;;;;;;659068;210;815977;-77
2021/01/29 08:41:41;;;;;;;75.07;31.50;;;;;;;;;;662291;211;914909;-77
2021/01/29 08:44:07;;;;;;;70.30;30.10;;;;;;;;;;661351;209;1018192;-76
2021/01/29 08:46:34;;;;;;;88.50;33.57;;;;;;;;;;669225;210;919535;-76
2021/01/29 08:49:02;;;;;;;79.93;31.90;;;;;;;;;;660272;211;1020787;-75
2021/01/29 08:51:29;;;;;;;78.27;33.90;;;;;;;;;;663348;210;1019839;-76
2021/01/29 08:53:56;;;;;;;73.73;33.80;;;;;;;;;;664382;210;918670;-75
2021/01/29 08:56:27;;;;;;;68.57;32.37;;;;;;;;;;666233;210;918759;-76
2021/01/29 08:58:59;;;;;;;65.57;30.20;;;;;;;;;;662837;210;925988;-76
2021/01/29 09:01:24;;;;;;;59.73;30.63;;;;;;;;;;659613;210;1524611;-76
2021/01/29 09:04:06;;;;;;;89.20;36.27;;;;;;;;;;660191;211;918555;-76
2021/01/29 09:06:36;;;;;;;82.13;32.50;;;;;;;;;;661949;207;919028;-75
2021/01/29 09:09:02;;;;;;;83.50;35.00;;;;;;;;;;666750;211;1021942;-75
2021/01/29 09:11:29;;;;;;;82.17;34.50;;;;;;;;;;662035;207;918351;-74
2021/01/29 09:13:55;;;;;;;86.47;35.43;;;;;;;;;;660949;210;919011;-76
2021/01/29 09:16:21;;;;;;;83.13;38.83;;;;;;;;;;666733;207;919568;-77
2021/01/29 09:19:04;;;;;;;219.33;90.17;;;;;;;;;;663780;211;919652;-76
2021/01/29 09:21:44;;;;;;;137.23;57.23;;;;;;;;;;660748;211;919160;-76
2021/01/29 09:24:11;;;;;;;77.57;33.23;;;;;;;;;;662717;211;918884;-75
2021/01/29 09:26:39;;;;;;;97.32;35.65;;;;;;;;;;662219;208;917589;-76
2021/01/29 09:29:05;;;;;;;74.03;32.90;;;;;;;;;;659159;211;919477;-75
2021/01/29 09:31:31;;;;;;;68.80;29.20;;;;;;;;;;662803;207;918580;-76
2021/01/29 09:33:58;;;;;;;68.63;28.97;;;;;;;;;;662533;211;974162;-76
2021/01/29 09:36:25;;;;;;;56.97;26.13;;;;;;;;;;661164;207;918750;-75
2021/01/29 09:38:52;;;;;;;58.70;28.80;;;;;;;;;;666695;211;941865;-75
2021/01/29 09:41:20;;;;;;;58.17;26.10;;;;;;;;;;661720;211;919244;-74
2021/01/29 09:43:47;;;;;;;63.50;27.40;;;;;;;;;;662326;211;919545;-75
2021/01/29 09:46:14;;;;;;;56.53;28.40;;;;;;;;;;661344;211;918951;-74
2021/01/29 09:48:42;;;;;;;65.13;29.63;;;;;;;;;;663882;211;918769;-76
2021/01/29 09:51:09;;;;;;;59.57;26.80;;;;;;;;;;662455;210;919459;-75
2021/01/29 09:53:35;;;;;;;59.72;26.15;;;;;;;;;;658975;208;918953;-74
2021/01/29 09:56:03;;;;;;;57.37;26.43;;;;;;;;;;668442;210;919469;-75
2021/01/29 09:58:31;;;;;;;63.83;27.13;;;;;;;;;;664051;207;919109;-75
2021/01/29 10:01:02;;;;;;;57.03;26.60;;;;;;;;;;665361;210;919724;-75
2021/01/29 10:03:31;;;;;;;51.60;27.00;;;;;;;;;;662829;210;918776;-76
2021/01/29 10:05:55;;;;;;;58.27;25.40;;;;;;;;;;667372;210;1023152;-77
2021/01/29 10:08:21;;;;;;;61.80;28.70;;;;;;;;;;662840;208;918974;-76
2021/01/29 10:10:47;;;;;;;67.90;28.90;;;;;;;;;;662989;210;918777;-76
2021/01/29 10:13:16;;;;;;;68.97;29.53;;;;;;;;;;665204;210;1020170;-76
2021/01/29 10:15:42;;;;;;;58.20;27.90;;;;;;;;;;667438;211;919489;-76
2021/01/29 10:18:12;;;;;;;70.67;30.47;;;;;;;;;;660339;210;921314;-77
2021/01/29 10:20:38;;;;;;;52.70;26.83;;;;;;;;;;661651;210;1020741;-78
2021/01/29 10:23:06;;;;;;;62.70;27.93;;;;;;;;;;665858;211;917556;-78
2021/01/29 10:25:45;;;;;;;71.80;26.40;;;;;;;;;;665000;210;919079;-77
2021/01/29 10:28:11;;;;;;;66.70;26.43;;;;;;;;;;663865;210;815738;-78
2021/01/29 10:30:39;;;;;;;61.47;23.60;;;;;;;;;;663988;211;919125;-77
2021/01/29 10:33:07;;;;;;;60.90;29.00;;;;;;;;;;668090;207;627578;-77
2021/01/29 10:35:34;;;;;;;61.87;28.10;;;;;;;;;;670738;211;624101;-77
2021/01/29 10:38:01;;;;;;;61.90;29.57;;;;;;;;;;666809;210;624883;-77
2021/01/29 10:40:29;;;;;;;66.67;29.30;;;;;;;;;;663916;211;631553;-77
2021/01/29 10:42:56;;;;;;;70.40;29.67;;;;;;;;;;666113;211;1018994;-76
2021/01/29 10:45:32;;;;;;;65.70;30.37;;;;;;;;;;662952;207;918598;-76
2021/01/29 10:47:59;;;;;;;73.90;28.37;;;;;;;;;;663852;210;920765;-77
2021/01/29 10:50:27;;;;;;;72.67;30.63;;;;;;;;;;660745;211;920076;-77
2021/01/29 10:52:59;;;;;;;80.30;31.60;;;;;;;;;;667522;211;919662;-76
2021/01/29 10:55:27;;;;;;;81.23;32.13;;;;;;;;;;666779;211;1167047;-77
2021/01/29 10:57:57;;;;;;;93.70;33.60;;;;;;;;;;666748;211;625315;-76
2021/01/29 11:00:22;;;;;;;73.53;30.30;;;;;;;;;;664147;211;637054;-78
2021/01/29 11:02:50;;;;;;;84.50;30.50;;;;;;;;;;667507;211;816430;-77
2021/01/29 11:05:18;;;;;;;74.10;31.33;;;;;;;;;;670056;211;626821;-78
2021/01/29 11:07:44;;;;;;;89.43;33.80;;;;;;;;;;667901;208;633002;-78
2021/01/29 11:10:10;;;;;;;78.63;32.47;;;;;;;;;;663035;207;917477;-75
2021/01/29 11:12:36;;;;;;;73.77;32.20;;;;;;;;;;667764;210;918469;-77
2021/01/29 11:15:03;;;;;;;72.30;30.37;;;;;;;;;;665226;208;918813;-77
2021/01/29 11:17:39;;;;;;;67.90;30.43;;;;;;;;;;661725;210;1021034;-76
2021/01/29 11:20:05;;;;;;;68.95;28.90;;;;;;;;;;662338;207;919145;-75
2021/01/29 11:22:35;;;;;;;92.80;35.17;;;;;;;;;;666825;210;943479;-77
2021/01/29 11:25:11;;;;;;;78.00;35.30;;;;;;;;;;660768;208;1022950;-76
2021/01/29 11:27:51;;;;;;;85.43;35.00;;;;;;;;;;664407;211;916769;-76
2021/01/29 11:30:19;;;;;;;80.70;33.07;;;;;;;;;;659483;207;921481;-76
2021/01/29 11:32:45;;;;;;;73.20;32.03;;;;;;;;;;662747;211;922009;-77
2021/01/29 11:35:11;;;;;;;81.23;32.57;;;;;;;;;;666270;210;921453;-77
2021/01/29 11:37:43;;;;;;;61.40;30.30;;;;;;;;;;663111;207;1059007;-77
2021/01/29 11:40:24;;;;;;;78.67;33.90;;;;;;;;;;662638;211;919212;-77
2021/01/29 11:42:51;;;;;;;85.57;34.55;;;;;;;;;;653445;211;1007549;-76
2021/01/29 11:45:18;;;;;;;81.27;31.67;;;;;;;;;;661516;211;1017578;-76
2021/01/29 11:47:52;;;;;;;83.47;34.80;;;;;;;;;;665957;211;915663;-75
2021/01/29 11:50:21;;;;;;;82.93;32.50;;;;;;;;;;659879;211;920679;-77
2021/01/29 11:52:47;;;;;;;83.90;31.67;;;;;;;;;;660785;211;912204;-78
2021/01/29 11:55:13;;;;;;;80.28;34.63;;;;;;;;;;663450;211;906259;-79
2021/01/29 11:58:00;;;;;;;77.50;33.53;;;;;;;;;;662506;211;1012395;-79
2021/01/29 12:00:26;;;;;;;86.00;34.10;;;;;;;;;;663966;211;746468;-78
2021/01/29 12:02:56;;;;;;;86.77;34.47;;;;;;;;;;659551;207;1612086;-78
2021/01/29 12:05:22;;;;;;;93.83;32.17;;;;;;;;;;665161;211;907738;-79
2021/01/29 12:07:53;;;;;;;83.40;34.28;;;;;;;;;;661409;208;918857;-77
2021/01/29 12:10:22;;;;;;;76.68;29.30;;;;;;;;;;667606;211;1021472;-79
2021/01/29 12:12:49;;;;;;;75.80;31.70;;;;;;;;;;659755;207;918554;-79
2021/01/29 12:15:18;;;;;;;73.00;34.07;;;;;;;;;;663263;211;919408;-79
2021/01/29 12:17:49;;;;;;;84.50;32.13;;;;;;;;;;661349;208;1005154;-78
2021/01/29 12:20:16;;;;;;;69.93;32.50;;;;;;;;;;670644;210;816216;-78
2021/01/29 12:22:43;;;;;;;69.13;31.03;;;;;;;;;;660362;210;1417941;-78
2021/01/29 12:25:25;;;;;;;70.47;31.93;;;;;;;;;;663621;210;1008567;-78
2021/01/29 12:27:52;;;;;;;62.23;27.53;;;;;;;;;;662134;210;1005988;-77
2021/01/29 12:30:20;;;;;;;58.77;26.13;;;;;;;;;;667980;210;931063;-78
2021/01/29 12:33:02;;;;;;;46.43;19.37;;;;;;;;;;666175;207;917146;-78
2021/01/29 12:35:28;;;;;;;45.77;25.03;;;;;;;;;;671551;210;917259;-79
2021/01/29 12:38:06;;;;;;;47.57;28.00;;;;;;;;;;661587;207;894960;-79
2021/01/29 12:40:34;;;;;;;53.47;25.47;;;;;;;;;;664739;211;918910;-79
2021/01/29 12:43:03;;;;;;;79.53;36.37;;;;;;;;;;659295;207;1308833;-77
2021/01/29 12:45:29;;;;;;;64.20;32.00;;;;;;;;;;667755;211;918862;-80
2021/01/29 12:47:55;;;;;;;61.90;30.07;;;;;;;;;;665481;210;816732;-80
2021/01/29 12:50:40;;;;;;;59.27;29.53;;;;;;;;;;663630;207;918604;-78
2021/01/29 12:53:10;;;;;;;61.77;27.60;;;;;;;;;;663352;210;816396;-79
2021/01/29 12:55:37;;;;;;;59.27;28.90;;;;;;;;;;661637;207;918532;-77
2021/01/29 12:58:06;;;;;;;48.67;21.87;;;;;;;;;;664415;211;929148;-76
2021/01/29 13:00:38;;;;;;;40.90;18.90;;;;;;;;;;661849;211;918987;-77
2021/01/29 13:03:01;;;;;;;33.53;17.30;;;;;;;;;;663984;211;918887;-76
2021/01/29 13:05:47;;;;;;;38.57;18.80;;;;;;;;;;665346;211;918487;-77
2021/01/29 13:08:19;;;;;;;48.73;22.80;;;;;;;;;;664527;211;939270;-77
2021/01/29 13:10:45;;;;;;;62.83;26.80;;;;;;;;;;666566;208;1003931;-76
2021/01/29 13:13:11;;;;;;;55.20;28.33;;;;;;;;;;663582;211;919276;-77
2021/01/29 13:15:37;;;;;;;41.50;21.77;;;;;;;;;;660102;207;918322;-76
2021/01/29 13:18:04;;;;;;;49.07;24.30;;;;;;;;;;666486;211;917659;-77
2021/01/29 13:20:29;;;;;;;48.90;28.10;;;;;;;;;;661468;207;918992;-77
2021/01/29 13:23:01;;;;;;;61.90;29.00;;;;;;;;;;664745;211;875407;-77
2021/01/29 13:25:27;;;;;;;57.50;30.90;;;;;;;;;;661028;211;918748;-75
2021/01/29 13:27:53;;;;;;;80.97;39.40;;;;;;;;;;667203;211;814857;-77
2021/01/29 13:30:19;;;;;;;76.95;36.25;;;;;;;;;;661633;207;1098760;-76
2021/01/29 13:32:45;;;;;;;56.40;29.50;;;;;;;;;;664199;210;918408;-75
2021/01/29 13:35:11;;;;;;;80.33;34.70;;;;;;;;;;666168;208;1021665;-76
2021/01/29 13:37:36;;;;;;;80.63;34.90;;;;;;;;;;664616;210;808483;-76
2021/01/29 13:40:07;;;;;;;84.37;37.90;;;;;;;;;;665283;210;918354;-74
2021/01/29 13:42:33;;;;;;;88.60;38.37;;;;;;;;;;664825;210;918668;-74
2021/01/29 13:45:05;;;;;;;79.47;38.28;;;;;;;;;;669810;210;811730;-78
2021/01/29 13:47:33;;;;;;;85.70;38.30;;;;;;;;;;662271;210;942304;-77
2021/01/29 13:49:58;;;;;;;113.80;47.57;;;;;;;;;;664838;211;1013089;-77
2021/01/29 13:52:26;;;;;;;104.17;49.63;;;;;;;;;;659186;210;1178949;-76
2021/01/29 13:54:52;;;;;;;89.60;42.27;;;;;;;;;;669243;210;918345;-77
2021/01/29 13:57:28;;;;;;;106.30;46.10;;;;;;;;;;663991;210;808240;-76
2021/01/29 13:59:57;;;;;;;158.97;60.40;;;;;;;;;;662232;210;919143;-76
2021/01/29 14:02:25;;;;;;;92.87;41.73;;;;;;;;;;662457;210;816096;-75
2021/01/29 14:04:51;;;;;;;86.30;43.40;;;;;;;;;;667164;210;817008;-76
2021/01/29 14:07:16;;;;;;;95.90;41.60;;;;;;;;;;661324;210;918976;-76
2021/01/29 14:09:42;;;;;;;104.20;40.47;;;;;;;;;;661921;211;913034;-75
2021/01/29 14:12:10;;;;;;;80.07;38.47;;;;;;;;;;666143;210;931347;-75
2021/01/29 14:14:41;;;;;;;100.57;44.20;;;;;;;;;;664233;211;812777;-75